Terminal Aerodrome Forecast
Issued by NWS Mt. Holly, NJ

Home | Current Version | Previous Version | Text Only | Print | Product List | Glossary On
Versions: 1 2 3 4 5 6 7 8 9 10 11 12 13 14 15 16 17
845
FTUS41 KPHI 271730
TAFABE
TAF
KABE 271730Z 2718/2818 27005KT P6SM SCT045 BKN100
     FM272100 35004KT P6SM BKN045
     FM280500 VRB03KT P6SM SCT250
     FM281500 12007KT P6SM BKN040=

USA.gov is the U.S. government's official web portal to all federal, state and local government web resources and services.